createdAt,value
2019-02-05T00:00:18.519Z,97505.09
2019-02-05T00:02:44.655Z,97504.23
2019-02-05T00:05:10.695Z,97505.55
2019-02-05T00:07:36.761Z,97511.95
2019-02-05T00:10:06.366Z,97524.30
2019-02-05T00:12:32.465Z,97528.96
2019-02-05T00:14:58.321Z,97521.69
2019-02-05T00:17:24.161Z,97521.69
2019-02-05T00:19:49.990Z,97520.79
2019-02-05T00:22:16.107Z,97519.01
2019-02-05T00:24:42.510Z,97519.92
2019-02-05T00:27:08.348Z,97524.63
2019-02-05T00:29:34.184Z,97530.12
2019-02-05T00:32:00.024Z,97513.56
2019-02-05T00:34:25.849Z,97528.42
2019-02-05T00:36:51.674Z,97530.98
2019-02-05T00:39:17.526Z,97535.28
2019-02-05T00:41:43.375Z,97538.25
2019-02-05T00:44:09.792Z,97538.25
2019-02-05T00:46:35.924Z,97534.87
2019-02-05T00:49:02.059Z,97529.41
2019-02-05T00:51:28.149Z,97529.41
2019-02-05T00:53:54.280Z,97536.64
2019-02-05T00:56:20.088Z,97525.53
2019-02-05T00:58:45.900Z,97534.12
2019-02-05T01:01:11.961Z,97530.61
2019-02-05T01:03:37.788Z,97535.28
2019-02-05T01:06:04.017Z,97533.17
2019-02-05T01:08:29.967Z,97533.29
2019-02-05T01:10:56.164Z,97523.50
2019-02-05T01:13:21.998Z,97525.61
2019-02-05T01:15:47.846Z,97525.13
2019-02-05T01:18:13.955Z,97520.79
2019-02-05T01:20:39.806Z,97525.45
2019-02-05T01:23:05.628Z,97518.59
2019-02-05T01:25:32.122Z,97518.22
2019-02-05T01:27:58.298Z,97524.63
2019-02-05T01:30:26.051Z,97522.52
2019-02-05T01:32:51.907Z,97512.77
2019-02-05T01:35:19.722Z,97512.77
2019-02-05T01:37:45.554Z,97512.32
2019-02-05T01:40:17.375Z,97504.68
2019-02-05T01:42:43.413Z,97491.55
2019-02-05T01:45:12.135Z,97493.66
2019-02-05T01:47:38.068Z,97490.23
2019-02-05T01:50:06.912Z,97485.08
2019-02-05T01:52:32.871Z,97485.53
2019-02-05T01:54:58.695Z,97478.34
2019-02-05T01:57:24.527Z,97478.80
2019-02-05T01:59:50.457Z,97479.99
2019-02-05T02:02:16.376Z,97473.01
2019-02-05T02:04:42.488Z,97475.16
2019-02-05T02:07:08.540Z,97474.83
2019-02-05T02:09:34.674Z,97470.58
2019-02-05T02:12:00.875Z,97464.59
2019-02-05T02:14:27.033Z,97467.98
2019-02-05T02:16:52.876Z,97467.93
2019-02-05T02:19:18.798Z,97470.91
2019-02-05T02:21:45.185Z,97478.72
2019-02-05T02:24:11.353Z,97465.05
2019-02-05T02:26:37.153Z,97470.66
2019-02-05T02:29:03.466Z,97480.03
2019-02-05T02:31:29.308Z,97476.65
2019-02-05T02:33:58.552Z,97481.80
2019-02-05T02:36:24.645Z,97471.53
2019-02-05T02:38:53.293Z,97466.86
2019-02-05T02:41:19.325Z,97480.52
2019-02-05T02:43:48.181Z,97455.31
2019-02-05T02:46:14.020Z,97463.85
2019-02-05T02:48:39.883Z,97446.36
2019-02-05T02:51:06.040Z,97445.27
2019-02-05T02:53:31.858Z,97444.03
2019-02-05T02:56:00.754Z,97441.44
2019-02-05T02:58:27.104Z,97452.12
2019-02-05T03:00:55.737Z,97432.07
2019-02-05T03:03:21.574Z,97439.44
2019-02-05T03:05:50.247Z,97433.66
2019-02-05T03:08:16.100Z,97455.00
2019-02-05T03:10:45.301Z,97443.48
2019-02-05T03:13:11.126Z,97441.35
2019-02-05T03:15:40.427Z,97442.16
2019-02-05T03:18:06.273Z,97459.58
2019-02-05T03:20:32.314Z,97446.31
2019-02-05T03:22:58.128Z,97445.48
2019-02-05T03:25:24.562Z,97450.66
2019-02-05T03:27:53.534Z,97465.13
2019-02-05T03:30:20.574Z,97456.61
2019-02-05T03:32:46.501Z,97453.63
2019-02-05T03:35:13.346Z,97453.22
2019-02-05T03:37:39.713Z,97455.36
2019-02-05T03:40:15.197Z,97464.27
2019-02-05T03:42:41.007Z,97460.05
2019-02-05T03:45:07.015Z,97463.05
2019-02-05T03:47:32.871Z,97460.08
2019-02-05T03:49:58.831Z,97462.24
2019-02-05T03:52:25.872Z,97455.41
2019-02-05T03:55:16.377Z,97461.38
2019-02-05T03:57:51.531Z,97454.16
2019-02-05T04:00:41.935Z,97448.66
2019-02-05T04:03:40.412Z,97459.70
2019-02-05T04:06:40.169Z,97478.06
2019-02-05T04:09:16.460Z,97476.77
2019-02-05T04:11:54.673Z,97470.82
2019-02-05T04:14:56.730Z,97471.67
2019-02-05T04:17:49.191Z,97472.97
2019-02-05T04:20:52.644Z,97472.62
2019-02-05T04:23:25.413Z,97473.89
2019-02-05T04:26:06.977Z,97480.28
2019-02-05T04:28:56.937Z,97483.27
2019-02-05T04:32:02.918Z,97481.13
2019-02-05T04:34:41.541Z,97486.23
2019-02-05T04:37:28.282Z,97482.01
2019-02-05T04:40:19.144Z,97477.33
2019-02-05T04:42:54.893Z,97484.61
2019-02-05T04:45:44.387Z,97491.42
2019-02-05T04:48:31.336Z,97491.85
2019-02-05T04:51:31.079Z,97499.52
2019-02-05T04:54:16.386Z,97496.98
2019-02-05T04:56:55.268Z,97488.45
2019-02-05T04:59:31.045Z,97488.47
2019-02-05T05:02:28.307Z,97490.59
2019-02-05T05:05:19.747Z,97496.54
2019-02-05T05:07:49.656Z,97490.60
2019-02-05T05:10:15.481Z,97496.98
2019-02-05T05:12:41.312Z,97494.44
2019-02-05T05:15:08.536Z,97491.45
2019-02-05T05:17:34.607Z,97494.85
2019-02-05T05:20:00.812Z,97499.12
2019-02-05T05:22:27.898Z,97509.30
2019-02-05T05:24:54.023Z,97506.33
2019-02-05T05:27:20.629Z,97507.20
2019-02-05T05:29:46.754Z,97504.22
2019-02-05T05:32:12.962Z,97512.72
2019-02-05T05:34:39.157Z,97537.80
2019-02-05T05:37:04.792Z,97522.08
2019-02-05T05:39:30.593Z,97514.86
2019-02-05T05:41:56.471Z,97516.98
2019-02-05T05:44:22.283Z,97511.89
2019-02-05T05:46:48.137Z,97506.36
2019-02-05T05:49:14.000Z,97503.80
2019-02-05T05:51:40.178Z,97501.66
2019-02-05T05:54:06.241Z,97502.09
2019-02-05T05:56:32.068Z,97510.58
2019-02-05T05:58:58.209Z,97514.42
2019-02-05T06:01:24.022Z,97518.66
2019-02-05T06:03:49.846Z,97527.59
2019-02-05T06:06:15.977Z,97528.45
2019-02-05T06:08:41.822Z,97534.82
2019-02-05T06:11:07.687Z,97530.11
2019-02-05T06:13:33.971Z,97528.86
2019-02-05T06:15:59.902Z,97532.67
2019-02-05T06:18:25.778Z,97529.67
2019-02-05T06:20:51.599Z,97542.45
2019-02-05T06:23:17.433Z,97539.46
2019-02-05T06:25:43.560Z,97547.11
2019-02-05T06:28:09.419Z,97552.19
2019-02-05T06:30:35.260Z,97555.61
2019-02-05T06:33:01.387Z,97561.53
2019-02-05T06:35:27.424Z,97564.94
2019-02-05T06:37:53.555Z,97568.35
2019-02-05T06:40:20.435Z,97566.23
2019-02-05T06:42:46.278Z,97564.11
2019-02-05T06:45:13.694Z,97569.63
2019-02-05T06:47:39.995Z,97567.05
2019-02-05T06:50:08.718Z,97568.30
2019-02-05T06:52:34.529Z,97569.17
2019-02-05T06:55:00.679Z,97571.70
2019-02-05T06:57:26.889Z,97573.44
2019-02-05T06:59:52.727Z,97573.81
2019-02-05T07:02:18.924Z,97590.36
2019-02-05T07:04:44.769Z,97586.95
2019-02-05T07:07:10.585Z,97593.34
2019-02-05T07:09:36.724Z,97595.94
2019-02-05T07:12:05.698Z,97595.06
2019-02-05T07:14:31.519Z,97618.02
2019-02-05T07:17:00.411Z,97602.41
2019-02-05T07:19:26.516Z,97625.03
2019-02-05T07:21:55.406Z,97609.13
2019-02-05T07:24:21.660Z,97625.94
2019-02-05T07:26:47.794Z,97612.02
2019-02-05T07:29:13.832Z,97603.41
2019-02-05T07:31:39.789Z,97590.83
2019-02-05T07:34:05.786Z,97591.39
2019-02-05T07:36:31.642Z,97606.79
2019-02-05T07:39:00.733Z,97593.59
2019-02-05T07:41:26.898Z,97589.24
2019-02-05T07:43:55.813Z,97593.53
2019-02-05T07:46:21.651Z,97594.42
2019-02-05T07:48:50.562Z,97598.45
2019-02-05T07:51:16.386Z,97610.50
2019-02-05T07:53:44.579Z,97607.93
2019-02-05T07:56:12.902Z,97607.93
2019-02-05T07:58:39.658Z,97599.76
2019-02-05T08:01:05.880Z,97603.17
2019-02-05T08:03:32.010Z,97606.30
2019-02-05T08:05:58.108Z,97606.73
2019-02-05T08:08:24.407Z,97597.60
2019-02-05T08:10:53.569Z,97602.66
2019-02-05T08:13:19.663Z,97610.13
2019-02-05T08:15:48.314Z,97607.16
2019-02-05T08:18:14.159Z,97612.50
2019-02-05T08:20:42.801Z,97579.04
2019-02-05T08:23:08.866Z,97564.91
2019-02-05T08:25:37.759Z,97566.23
2019-02-05T08:28:04.179Z,97585.49
2019-02-05T08:30:56.277Z,97559.85
2019-02-05T08:33:22.089Z,97554.66
2019-02-05T08:35:47.928Z,97564.63
2019-02-05T08:38:13.854Z,97566.74
2019-02-05T08:40:40.193Z,97567.66
2019-02-05T08:43:06.237Z,97578.74
2019-02-05T08:45:33.947Z,97578.16
2019-02-05T08:48:00.037Z,97584.11
2019-02-05T08:50:27.603Z,97583.81
2019-02-05T08:52:53.984Z,97578.32
2019-02-05T08:55:20.008Z,97581.64
2019-02-05T08:57:46.961Z,97585.20
2019-02-05T09:00:21.844Z,97588.32
2019-02-05T09:02:48.510Z,97593.58
2019-02-05T09:05:14.846Z,97593.92
2019-02-05T09:07:40.763Z,97595.27
2019-02-05T09:10:10.641Z,97599.41
2019-02-05T09:12:36.589Z,97596.47
2019-02-05T09:15:05.732Z,97604.47
2019-02-05T09:17:31.567Z,97601.48
2019-02-05T09:19:57.399Z,97598.11
2019-02-05T09:22:23.527Z,97598.52
2019-02-05T09:24:49.346Z,97593.41
2019-02-05T09:27:15.593Z,97595.23
2019-02-05T09:29:41.394Z,97597.55
2019-02-05T09:32:07.495Z,97605.92
2019-02-05T09:34:33.334Z,97613.47
2019-02-05T09:36:59.175Z,97600.70
2019-02-05T09:39:24.981Z,97612.32
2019-02-05T09:41:50.978Z,97612.95
2019-02-05T09:44:16.860Z,97615.86
2019-02-05T09:46:43.009Z,97620.03
2019-02-05T09:49:09.199Z,97627.45
2019-02-05T09:51:35.335Z,97630.31
2019-02-05T09:54:01.180Z,97626.30
2019-02-05T09:56:27.106Z,97631.51
2019-02-05T09:58:53.232Z,97636.07
2019-02-05T10:01:19.025Z,97639.06
2019-02-05T10:03:44.894Z,97634.67
2019-02-05T10:06:10.726Z,97632.78
2019-02-05T10:08:36.555Z,97631.45
2019-02-05T10:11:02.797Z,97625.55
2019-02-05T10:13:28.882Z,97627.45
2019-02-05T10:15:54.710Z,97617.67
2019-02-05T10:18:20.516Z,97622.33
2019-02-05T10:20:46.817Z,97622.91
2019-02-05T10:23:12.758Z,97628.88
2019-02-05T10:25:41.599Z,97625.22
2019-02-05T10:28:07.522Z,97621.78
2019-02-05T10:30:36.452Z,97618.67
2019-02-05T10:33:03.809Z,97617.83
2019-02-05T10:35:29.732Z,97614.73
2019-02-05T10:37:55.695Z,97611.55
2019-02-05T10:40:23.548Z,97615.39
2019-02-05T10:42:49.578Z,97614.67
2019-02-05T10:45:18.126Z,97613.77
2019-02-05T10:47:43.983Z,97628.32
2019-02-05T10:50:12.706Z,97612.62
2019-02-05T10:52:38.950Z,97610.61
2019-02-05T10:55:08.001Z,97606.17
2019-02-05T10:57:33.929Z,97610.44
2019-02-05T11:00:08.478Z,97607.87
2019-02-05T11:02:27.796Z,97608.27
2019-02-05T11:04:53.643Z,97607.50
2019-02-05T11:07:19.490Z,97612.03
2019-02-05T11:09:45.598Z,97615.59
2019-02-05T11:12:11.713Z,97606.44
2019-02-05T11:14:37.747Z,97606.52
2019-02-05T11:17:03.891Z,97606.16
2019-02-05T11:19:34.273Z,97607.53
2019-02-05T11:22:00.376Z,97600.81
2019-02-05T11:24:29.143Z,97616.64
2019-02-05T11:26:55.208Z,97627.18
2019-02-05T11:29:24.249Z,97609.80
2019-02-05T11:31:50.123Z,97631.53
2019-02-05T11:34:19.048Z,97614.02
2019-02-05T11:36:44.965Z,97630.58
2019-02-05T11:39:14.455Z,97616.44
2019-02-05T11:41:40.281Z,97633.53
2019-02-05T11:44:06.109Z,97619.56
2019-02-05T11:46:32.208Z,97614.55
2019-02-05T11:48:58.343Z,97609.28
2019-02-05T11:51:24.195Z,97603.19
2019-02-05T11:53:50.283Z,97604.63
2019-02-05T11:56:19.088Z,97602.27
2019-02-05T11:58:44.950Z,97598.53
2019-02-05T12:01:14.369Z,97584.71
2019-02-05T12:03:40.586Z,97591.33
2019-02-05T12:06:09.346Z,97584.27
2019-02-05T12:08:35.286Z,97601.54
2019-02-05T12:11:04.847Z,97579.96
2019-02-05T12:13:30.721Z,97595.97
2019-02-05T12:15:57.083Z,97575.44
2019-02-05T12:18:23.222Z,97574.56
2019-02-05T12:20:49.096Z,97577.05
2019-02-05T12:23:15.522Z,97566.05
2019-02-05T12:25:41.386Z,97573.69
2019-02-05T12:28:08.603Z,97569.91
2019-02-05T12:30:45.035Z,97571.83
2019-02-05T12:33:07.088Z,97564.42
2019-02-05T12:35:33.208Z,97560.64
2019-02-05T12:37:59.579Z,97563.38
2019-02-05T12:40:25.784Z,97571.18
2019-02-05T12:42:54.552Z,97567.73
2019-02-05T12:45:22.964Z,97582.95
2019-02-05T12:47:48.932Z,97563.48
2019-02-05T12:50:17.635Z,97576.46
2019-02-05T12:52:43.600Z,97573.41
2019-02-05T12:55:14.089Z,97569.00
2019-02-05T12:57:38.289Z,97565.70
2019-02-05T13:00:32.037Z,97564.02
2019-02-05T13:02:57.994Z,97566.96
2019-02-05T13:05:24.319Z,97564.48
2019-02-05T13:07:50.441Z,97563.05
2019-02-05T13:10:22.969Z,97562.87
2019-02-05T13:12:49.055Z,97555.13
2019-02-05T13:15:15.159Z,97551.38
2019-02-05T13:17:41.353Z,97552.25
2019-02-05T13:20:11.049Z,97555.67
2019-02-05T13:22:37.304Z,97557.30
2019-02-05T13:25:06.960Z,97556.16
2019-02-05T13:27:33.117Z,97556.23
2019-02-05T13:29:58.967Z,97547.84
2019-02-05T13:32:24.864Z,97550.86
2019-02-05T13:34:51.005Z,97547.59
2019-02-05T13:37:16.865Z,97543.69
2019-02-05T13:39:42.685Z,97542.82
2019-02-05T13:42:08.862Z,97547.47
2019-02-05T13:44:34.801Z,97552.41
2019-02-05T13:47:01.151Z,97548.97
2019-02-05T13:49:27.380Z,97548.03
2019-02-05T13:51:53.219Z,97550.39
2019-02-05T13:54:19.341Z,97551.81
2019-02-05T13:56:45.206Z,97553.54
2019-02-05T13:59:11.018Z,97546.30
2019-02-05T14:01:36.852Z,97549.89
2019-02-05T14:04:02.901Z,97546.61
2019-02-05T14:06:29.195Z,97553.20
2019-02-05T14:08:55.316Z,97549.23
2019-02-05T14:11:21.501Z,97546.66
2019-02-05T14:13:47.333Z,97553.98
2019-02-05T14:16:13.175Z,97549.70
2019-02-05T14:18:39.259Z,97551.83
2019-02-05T14:21:05.113Z,97549.41
2019-02-05T14:23:30.948Z,97554.05
2019-02-05T14:25:59.586Z,97549.14
2019-02-05T14:28:24.783Z,97546.71
2019-02-05T14:30:51.918Z,97552.11
2019-02-05T14:33:17.965Z,97558.36
2019-02-05T14:35:43.990Z,97554.77
2019-02-05T14:38:10.035Z,97555.80
2019-02-05T14:40:35.852Z,97557.38
2019-02-05T14:43:01.695Z,97562.19
2019-02-05T14:45:27.680Z,97561.31
2019-02-05T14:47:53.483Z,97561.31
2019-02-05T14:50:27.514Z,97565.19
2019-02-05T14:52:53.811Z,97560.23
2019-02-05T14:55:19.657Z,97567.01
2019-02-05T14:57:45.877Z,97565.95
2019-02-05T15:00:15.555Z,97563.97
2019-02-05T15:02:41.666Z,97560.50
2019-02-05T15:05:09.333Z,97560.43
2019-02-05T15:07:35.179Z,97559.51
2019-02-05T15:10:01.296Z,97560.66
2019-02-05T15:12:27.513Z,97563.56
2019-02-05T15:14:53.360Z,97561.86
2019-02-05T15:17:19.196Z,97566.30
2019-02-05T15:19:45.045Z,97560.18
2019-02-05T15:22:10.872Z,97559.20
2019-02-05T15:24:38.863Z,97558.69
2019-02-05T15:27:04.645Z,97555.44
2019-02-05T15:29:30.503Z,97553.84
2019-02-05T15:31:56.317Z,97552.58
2019-02-05T15:34:22.515Z,97558.23
2019-02-05T15:36:51.283Z,97550.85
2019-02-05T15:39:17.401Z,97568.42
2019-02-05T15:41:44.609Z,97554.41
2019-02-05T15:44:10.924Z,97554.83
2019-02-05T15:46:39.856Z,97554.03
2019-02-05T15:49:05.958Z,97553.27
2019-02-05T15:51:34.848Z,97558.77
2019-02-05T15:54:01.042Z,97568.22
2019-02-05T15:56:29.893Z,97547.33
2019-02-05T15:58:55.973Z,97569.17
2019-02-05T16:01:22.520Z,97554.37
2019-02-05T16:03:48.568Z,97556.13
2019-02-05T16:06:14.332Z,97549.28
2019-02-05T16:08:40.174Z,97554.52
2019-02-05T16:11:06.191Z,97435.31
2019-02-05T16:13:36.731Z,97559.25
2019-02-05T16:16:03.060Z,97564.22
2019-02-05T16:18:32.092Z,97554.75
2019-02-05T16:20:58.594Z,97573.20
2019-02-05T16:23:24.430Z,97559.09
2019-02-05T16:25:50.569Z,97568.41
2019-02-05T16:28:19.480Z,97565.01
2019-02-05T16:30:45.581Z,97561.86
2019-02-05T16:33:17.755Z,97569.77
2019-02-05T16:35:43.583Z,97568.20
2019-02-05T16:38:09.430Z,97573.56
2019-02-05T16:40:38.461Z,97566.62
2019-02-05T16:43:04.737Z,97574.84
2019-02-05T16:45:30.664Z,97570.88
2019-02-05T16:47:56.621Z,97570.17
2019-02-05T16:50:34.516Z,97581.24
2019-02-05T16:53:00.446Z,97576.97
2019-02-05T16:55:26.942Z,97580.52
2019-02-05T16:57:52.880Z,97582.11
2019-02-05T17:00:25.500Z,97543.08
2019-02-05T17:02:51.445Z,97579.38
2019-02-05T17:05:19.254Z,97584.97
2019-02-05T17:07:45.347Z,97585.75
2019-02-05T17:10:21.375Z,97589.25
2019-02-05T17:12:47.220Z,97590.55
2019-02-05T17:15:15.234Z,97588.46
2019-02-05T17:17:41.536Z,97595.34
2019-02-05T17:20:10.954Z,97597.83
2019-02-05T17:22:37.586Z,97592.33
2019-02-05T17:25:06.831Z,97594.14
2019-02-05T17:27:32.943Z,97595.09
2019-02-05T17:29:59.508Z,97592.97
2019-02-05T17:32:25.363Z,97596.15
2019-02-05T17:34:51.167Z,97591.05
2019-02-05T17:37:17.009Z,97592.99
2019-02-05T17:39:42.801Z,97600.99
2019-02-05T17:42:08.725Z,97595.28
2019-02-05T17:44:34.543Z,97600.14
2019-02-05T17:47:00.684Z,97598.44
2019-02-05T17:49:26.521Z,97598.03
2019-02-05T17:51:52.446Z,97599.80
2019-02-05T17:54:18.279Z,97600.33
2019-02-05T17:56:44.164Z,97609.95
2019-02-05T17:59:09.994Z,97606.88
2019-02-05T18:01:35.948Z,97614.25
2019-02-05T18:04:01.774Z,97614.77
2019-02-05T18:06:27.919Z,97614.77
2019-02-05T18:08:53.738Z,97617.84
2019-02-05T18:11:20.011Z,97625.55
2019-02-05T18:13:45.774Z,97626.50
2019-02-05T18:16:11.758Z,97631.87
2019-02-05T18:18:37.606Z,97635.36
2019-02-05T18:21:03.790Z,97641.14
2019-02-05T18:23:29.949Z,97643.04
2019-02-05T18:25:55.762Z,97655.19
2019-02-05T18:28:21.615Z,97641.00
2019-02-05T18:30:47.693Z,97642.70
2019-02-05T18:33:13.744Z,97643.27
2019-02-05T18:35:42.998Z,97638.61
2019-02-05T18:38:35.007Z,97637.78
2019-02-05T18:41:00.849Z,97641.00
2019-02-05T18:43:26.668Z,97635.70
2019-02-05T18:45:52.521Z,97638.19
2019-02-05T18:48:18.368Z,97641.55
2019-02-05T18:50:44.197Z,97632.23
2019-02-05T18:53:11.863Z,97631.50
2019-02-05T18:55:40.752Z,97631.55
2019-02-05T18:58:09.550Z,97630.09
2019-02-05T19:00:38.712Z,97629.36
2019-02-05T19:03:14.798Z,97628.56
2019-02-05T19:05:32.629Z,97631.34
2019-02-05T19:07:58.466Z,97631.39
2019-02-05T19:10:27.205Z,97630.38
2019-02-05T19:12:53.024Z,97628.14
2019-02-05T19:15:21.972Z,97635.05
2019-02-05T19:17:47.785Z,97636.34
2019-02-05T19:20:15.438Z,97639.45
2019-02-05T19:22:41.958Z,97639.45
2019-02-05T19:25:09.999Z,97633.02
2019-02-05T19:27:35.866Z,97632.55
2019-02-05T19:30:04.407Z,97633.86
2019-02-05T19:32:30.314Z,97640.28
2019-02-05T19:34:56.521Z,97638.66
2019-02-05T19:37:22.619Z,97637.83
2019-02-05T19:39:49.147Z,97638.76
2019-02-05T19:42:14.981Z,97632.83
2019-02-05T19:44:42.859Z,97634.56
2019-02-05T19:47:08.849Z,97628.69
2019-02-05T19:49:34.889Z,97627.36
2019-02-05T19:52:01.012Z,97633.77
2019-02-05T19:54:26.846Z,97635.06
2019-02-05T19:56:52.758Z,97629.68
2019-02-05T19:59:18.922Z,97628.23
2019-02-05T20:01:44.832Z,97630.27
2019-02-05T20:04:11.096Z,97636.34
2019-02-05T20:06:37.333Z,97630.78
2019-02-05T20:09:07.274Z,97626.86
2019-02-05T20:11:33.113Z,97626.47
2019-02-05T20:13:59.045Z,97628.70
2019-02-05T20:16:24.875Z,97624.49
2019-02-05T20:18:50.781Z,97627.52
2019-02-05T20:21:16.638Z,97629.17
2019-02-05T20:23:42.439Z,97629.23
2019-02-05T20:26:08.577Z,97635.80
2019-02-05T20:28:34.789Z,97629.40
2019-02-05T20:31:00.620Z,97620.79
2019-02-05T20:33:26.720Z,97620.79
2019-02-05T20:35:52.582Z,97617.92
2019-02-05T20:38:18.712Z,97621.77
2019-02-05T20:40:44.539Z,97613.61
2019-02-05T20:43:10.770Z,97621.25
2019-02-05T20:45:36.590Z,97620.74
2019-02-05T20:48:03.695Z,97615.30
2019-02-05T20:50:32.308Z,97621.34
2019-02-05T20:52:58.432Z,97630.33
2019-02-05T20:55:24.481Z,97627.66
2019-02-05T20:57:50.394Z,97633.34
2019-02-05T21:00:22.182Z,97506.29
2019-02-05T21:02:48.528Z,97630.69
2019-02-05T21:05:16.554Z,97632.33
2019-02-05T21:07:42.499Z,97632.92
2019-02-05T21:10:12.052Z,97623.72
2019-02-05T21:12:37.884Z,97623.72
2019-02-05T21:15:09.735Z,97632.56
2019-02-05T21:17:35.572Z,97626.20
2019-02-05T21:20:02.052Z,97630.86
2019-02-05T21:22:29.263Z,97630.05
2019-02-05T21:24:55.186Z,97635.25
2019-02-05T21:27:21.057Z,97633.52
2019-02-05T21:29:46.898Z,97639.51
2019-02-05T21:32:12.923Z,97634.84
2019-02-05T21:34:38.777Z,97642.07
2019-02-05T21:37:04.613Z,97639.96
2019-02-05T21:39:30.725Z,97641.77
2019-02-05T21:41:56.865Z,97642.16
2019-02-05T21:44:22.728Z,97644.26
2019-02-05T21:46:48.844Z,97645.99
2019-02-05T21:49:19.579Z,97646.90
2019-02-05T21:51:45.942Z,97636.73
2019-02-05T21:54:14.550Z,97647.48
2019-02-05T21:56:40.385Z,97665.02
2019-02-05T21:59:09.254Z,97642.88
2019-02-05T22:01:35.225Z,97648.88
2019-02-05T22:04:04.035Z,97642.52
2019-02-05T22:06:30.221Z,97670.59
2019-02-05T22:08:56.293Z,97635.16
2019-02-05T22:11:22.319Z,97634.68
2019-02-05T22:13:48.546Z,97635.16
2019-02-05T22:16:14.390Z,97635.16
2019-02-05T22:18:40.477Z,97628.77
2019-02-05T22:21:06.765Z,97632.61
2019-02-05T22:23:32.643Z,97633.05
2019-02-05T22:25:58.458Z,97622.84
2019-02-05T22:28:24.698Z,97628.08
2019-02-05T22:30:51.148Z,97626.30
2019-02-05T22:33:16.997Z,97626.30
2019-02-05T22:35:42.849Z,97618.27
2019-02-05T22:38:08.646Z,97617.40
2019-02-05T22:40:34.751Z,97614.36
2019-02-05T22:43:01.175Z,97605.88
2019-02-05T22:45:30.683Z,97598.62
2019-02-05T22:47:56.787Z,97603.70
2019-02-05T22:50:25.556Z,97603.67
2019-02-05T22:52:51.829Z,97603.67
2019-02-05T22:55:17.687Z,97599.80
2019-02-05T22:57:43.552Z,97599.80
2019-02-05T23:00:13.312Z,97599.00
2019-02-05T23:02:39.434Z,97593.02
2019-02-05T23:05:09.159Z,97599.36
2019-02-05T23:07:35.385Z,97590.81
2019-02-05T23:10:10.658Z,97584.00
2019-02-05T23:12:36.911Z,97586.94
2019-02-05T23:15:10.163Z,97588.66
2019-02-05T23:17:36.267Z,97583.02
2019-02-05T23:20:05.904Z,97579.48
2019-02-05T23:22:32.657Z,97567.16
2019-02-05T23:24:58.479Z,97567.16
2019-02-05T23:27:24.892Z,97565.47
2019-02-05T23:29:50.770Z,97565.47
2019-02-05T23:32:16.625Z,97570.09
2019-02-05T23:34:42.553Z,97565.84
2019-02-05T23:37:08.778Z,97574.35
2019-02-05T23:39:34.997Z,97563.28
2019-02-05T23:42:02.274Z,97556.47
2019-02-05T23:44:28.139Z,97559.89
2019-02-05T23:46:54.592Z,97561.66
2019-02-05T23:49:20.766Z,97561.66
2019-02-05T23:51:46.973Z,97567.66
2019-02-05T23:54:12.935Z,97567.77
2019-02-05T23:56:38.761Z,97574.59
2019-02-05T23:59:04.864Z,97575.41
